Time;durP1;ratioP1;P1;durP2;ratioP2;P2;SDS_P1;SDS_P2;PMS_P1;PMS_P2;Temp;Humidity;BMP_temperature;BMP_pressure;BME280_temperature;BME280_humidity;BME280_pressure;Samples;Min_cycle;Max_cycle;Signal;HPM_P1;HPM_P2
2023/04/18 00:04:19;;;;;;;6.30;5.35;;;;;;;9.98;70.71;99690.19;7442289;39;20250;31
2023/04/18 00:09:54;;;;;;;6.73;5.47;;;;;;;9.84;70.73;99692.38;7405229;39;20240;31
2023/04/18 00:15:30;;;;;;;6.27;4.90;;;;;;;9.67;70.57;99682.41;7433290;39;20257;31
2023/04/18 00:20:50;;;;;;;6.12;5.43;;;;;;;9.59;70.62;99679.63;7432831;39;20251;31
2023/04/18 00:26:25;;;;;;;5.70;5.10;;;;;;;9.49;70.92;99663.50;7445740;39;20252;31
2023/04/18 00:31:59;;;;;;;6.10;5.30;;;;;;;9.37;70.93;99663.84;7404943;39;20313;31
2023/04/18 00:37:19;;;;;;;8.77;6.47;;;;;;;9.31;70.45;99667.09;7425921;39;20243;31
2023/04/18 00:42:36;;;;;;;9.15;6.35;;;;;;;9.23;71.04;99662.47;7368823;39;20396;31
2023/04/18 00:48:12;;;;;;;6.75;6.10;;;;;;;9.15;71.22;99666.88;7386977;39;20242;31
2023/04/18 00:53:48;;;;;;;8.27;7.17;;;;;;;9.08;71.25;99658.56;7379260;39;20396;31
2023/04/18 00:59:20;;;;;;;8.63;6.33;;;;;;;9.10;71.18;99655.72;7376719;39;20240;31
2023/04/18 01:10:21;;;;;;;7.57;6.75;;;;;;;8.99;70.74;99648.69;7345066;38;9755770;31
2023/04/18 01:15:57;;;;;;;7.47;5.60;;;;;;;8.90;70.23;99646.88;7428913;39;21190;31
2023/04/18 01:21:29;;;;;;;8.93;6.97;;;;;;;8.89;71.16;99643.34;7445898;39;20277;31
2023/04/18 01:27:01;;;;;;;8.47;6.30;;;;;;;9.00;70.68;99632.41;7449420;39;20242;31
2023/04/18 01:32:32;;;;;;;8.70;7.40;;;;;;;9.05;71.42;99631.97;7403774;39;20243;31
2023/04/18 01:37:53;;;;;;;9.13;7.17;;;;;;;9.01;70.80;99636.78;7416755;39;20345;31
2023/04/18 01:43:24;;;;;;;9.97;7.10;;;;;;;8.94;70.80;99622.25;7382329;39;20255;31
2023/04/18 01:48:45;;;;;;;9.20;7.33;;;;;;;8.98;70.98;99620.97;7390479;39;20238;31
2023/04/18 01:54:16;;;;;;;9.57;7.57;;;;;;;9.08;70.64;99620.09;7430558;39;20314;31
2023/04/18 01:59:49;;;;;;;10.13;7.40;;;;;;;9.17;69.92;99619.19;7422369;39;20325;31
2023/04/18 02:05:22;;;;;;;9.87;8.10;;;;;;;9.21;70.70;99620.59;7395148;39;20246;31
2023/04/18 02:10:54;;;;;;;11.50;7.80;;;;;;;9.17;70.83;99629.97;7422128;39;20640;31
2023/04/18 02:21:32;;;;;;;11.33;7.63;;;;;;;9.05;70.56;99619.37;7382115;39;21244;31
2023/04/18 02:27:04;;;;;;;11.20;7.90;;;;;;;9.07;70.84;99610.31;7385096;39;20277;31
2023/04/18 02:32:21;;;;;;;9.23;7.33;;;;;;;9.05;70.48;99622.06;7411659;39;20279;31
2023/04/18 02:43:02;;;;;;;10.50;7.45;;;;;;;9.06;70.26;99617.53;7491658;39;21059;31
2023/04/18 02:53:41;;;;;;;9.20;8.15;;;;;;;9.04;70.19;99619.50;7449374;39;21501;31
2023/04/18 02:59:17;;;;;;;8.88;7.80;;;;;;;9.03;71.18;99617.84;7462807;38;21888;31
2023/04/18 03:04:52;;;;;;;9.65;8.10;;;;;;;9.14;71.11;99617.63;7447094;39;21826;31
2023/04/18 03:10:10;;;;;;;8.83;7.93;;;;;;;9.04;70.30;99614.97;7395147;39;20293;31
2023/04/18 03:20:48;;;;;;;10.77;7.67;;;;;;;9.02;69.87;99614.28;7415152;39;21468;31
2023/04/18 03:31:25;;;;;;;9.13;7.90;;;;;;;9.03;69.57;99613.31;7355997;39;21184;31
2023/04/18 03:42:02;;;;;;;10.57;8.10;;;;;;;9.01;69.04;99614.44;7375342;39;21240;31
2023/04/18 03:47:37;;;;;;;9.60;8.00;;;;;;;8.95;69.36;99605.09;7380851;39;20270;31
2023/04/18 03:53:10;;;;;;;13.15;8.70;;;;;;;8.97;69.51;99619.25;7375708;39;20342;31
2023/04/18 04:03:47;;;;;;;10.25;8.02;;;;;;;8.92;69.57;99602.72;7370840;39;20799;31
2023/04/18 04:14:08;;;;;;;9.37;8.13;;;;;;;8.99;69.73;99611.87;7418339;39;21146;31
2023/04/18 04:19:41;;;;;;;10.27;7.87;;;;;;;8.96;69.62;99608.62;7396950;39;20278;31
2023/04/18 04:30:17;;;;;;;12.58;8.44;;;;;;;8.96;69.96;99611.31;7357239;39;20270;31
2023/04/18 04:35:53;;;;;;;9.65;7.85;;;;;;;8.95;69.65;99620.41;7362032;39;20276;31
2023/04/18 04:41:26;;;;;;;12.20;8.60;;;;;;;8.91;69.07;99621.66;7391289;39;20370;31
2023/04/18 04:46:46;;;;;;;11.10;9.03;;;;;;;8.91;69.37;99614.44;7418163;39;20246;31
2023/04/18 04:52:22;;;;;;;9.43;8.43;;;;;;;8.94;69.29;99624.09;7408566;39;20330;31
2023/04/18 04:57:54;;;;;;;11.90;9.20;;;;;;;8.93;69.93;99617.84;7395252;39;20433;31
2023/04/18 05:03:23;;;;;;;11.90;8.90;;;;;;;8.95;70.77;99629.28;7439349;39;20238;31
2023/04/18 05:08:59;;;;;;;10.40;8.60;;;;;;;8.89;69.46;99632.59;7426518;39;21209;31
2023/04/18 05:14:34;;;;;;;14.20;9.60;;;;;;;8.92;70.44;99640.34;7427138;39;21868;31
2023/04/18 05:20:10;;;;;;;10.67;8.70;;;;;;;8.91;70.24;99648.53;7417220;39;20238;31
2023/04/18 05:25:43;;;;;;;11.77;9.10;;;;;;;8.87;70.39;99655.19;7416311;39;20258;31
2023/04/18 05:36:17;;;;;;;10.30;9.20;;;;;;;8.87;70.73;99663.28;7445723;39;20361;31
2023/04/18 05:41:50;;;;;;;12.97;9.43;;;;;;;8.89;71.52;99672.91;7376257;39;20292;31
2023/04/18 05:47:25;;;;;;;15.20;10.07;;;;;;;8.95;71.00;99668.78;7399453;39;20261;31
2023/04/18 05:52:40;;;;;;;13.87;10.07;;;;;;;8.94;71.37;99678.69;7396616;39;20255;31
2023/04/18 05:58:11;;;;;;;12.17;9.90;;;;;;;8.94;70.67;99678.69;7358438;39;20340;31
2023/04/18 06:03:41;;;;;;;14.87;10.20;;;;;;;8.99;71.20;99673.72;7387258;39;20399;31
2023/04/18 06:08:59;;;;;;;16.03;10.33;;;;;;;9.01;71.25;99689.72;7399341;39;20303;31
2023/04/18 06:14:32;;;;;;;10.95;9.35;;;;;;;8.98;71.97;99685.47;7382257;39;20496;31
2023/04/18 06:19:49;;;;;;;13.25;9.75;;;;;;;8.97;72.30;99699.06;7356734;39;20262;31
2023/04/18 06:25:22;;;;;;;10.23;9.10;;;;;;;8.96;71.67;99687.44;7355036;39;20248;31
2023/04/18 06:30:55;;;;;;;15.03;9.57;;;;;;;9.05;71.80;99689.28;7408003;39;20270;31
2023/04/18 06:41:16;;;;;;;10.85;9.40;;;;;;;8.94;71.99;99691.28;7447286;39;20270;31
2023/04/18 06:46:49;;;;;;;11.90;9.13;;;;;;;8.91;72.29;99699.62;7442190;39;21319;31
2023/04/18 06:57:25;;;;;;;12.00;9.40;;;;;;;8.98;72.26;99685.47;7380479;39;20275;31
2023/04/18 07:08:02;;;;;;;12.10;9.77;;;;;;;9.10;72.12;99682.59;7361935;39;20393;31
2023/04/18 07:18:27;;;;;;;13.67;9.90;;;;;;;9.30;71.75;99703.91;7423414;39;20254;31
2023/04/18 07:24:00;;;;;;;12.25;9.50;;;;;;;9.28;71.66;99697.84;7447810;39;20274;31
2023/04/18 07:29:35;;;;;;;11.90;9.80;;;;;;;9.30;71.53;99705.78;7448068;39;21958;31
2023/04/18 07:35:11;;;;;;;11.23;9.23;;;;;;;9.36;71.18;99706.03;7400815;39;20257;31
2023/04/18 07:40:43;;;;;;;12.67;10.07;;;;;;;9.34;71.12;99709.88;7376484;39;20266;31
2023/04/18 07:46:15;;;;;;;11.80;9.30;;;;;;;9.29;71.58;99712.16;7381010;39;20256;31
2023/04/18 07:51:33;;;;;;;14.97;9.97;;;;;;;9.33;71.69;99727.84;7368897;39;20255;31
2023/04/18 07:57:09;;;;;;;13.37;9.90;;;;;;;9.25;71.20;99722.38;7377607;39;20243;31
2023/04/18 08:02:26;;;;;;;12.30;9.90;;;;;;;9.27;71.82;99731.12;7335464;39;20336;31
2023/04/18 08:07:43;;;;;;;13.80;10.07;;;;;;;9.31;72.26;99726.28;7332459;39;20302;31
2023/04/18 08:13:18;;;;;;;14.65;9.85;;;;;;;9.30;72.52;99727.31;7356580;39;21120;31
2023/04/18 08:18:39;;;;;;;15.57;10.83;;;;;;;9.29;72.69;99714.84;7363961;39;20241;31
2023/04/18 08:24:10;;;;;;;14.37;10.50;;;;;;;9.28;72.91;99734.66;7415789;39;21323;31
2023/04/18 08:29:43;;;;;;;15.15;10.50;;;;;;;9.37;73.26;99726.56;7237859;39;20238;31
2023/04/18 08:35:16;;;;;;;14.10;10.23;;;;;;;9.48;72.81;99725.53;7376652;39;20375;31
2023/04/18 08:40:49;;;;;;;13.27;10.67;;;;;;;9.62;73.12;99732.28;7399991;39;20345;31
2023/04/18 08:46:19;;;;;;;15.20;10.73;;;;;;;9.73;72.50;99732.97;7378520;39;20258;31
2023/04/18 08:51:52;;;;;;;13.67;10.53;;;;;;;9.75;73.27;99744.41;7336756;39;20252;31
2023/04/18 08:57:25;;;;;;;13.07;11.00;;;;;;;9.71;73.13;99748.41;7325817;39;20323;31
2023/04/18 09:02:57;;;;;;;14.97;11.73;;;;;;;9.69;72.89;99749.56;7341417;39;20248;31
2023/04/18 09:08:38;;;;;;;13.27;11.00;;;;;;;9.69;73.57;99742.34;7335861;39;20247;31
2023/04/18 09:14:10;;;;;;;13.57;11.10;;;;;;;9.71;73.18;99751.09;7302819;39;20248;31
2023/04/18 09:19:41;;;;;;;12.83;10.60;;;;;;;9.84;73.12;99735.44;7336838;39;20240;31
2023/04/18 09:24:58;;;;;;;13.93;11.30;;;;;;;10.17;72.54;99741.28;7324084;39;20278;31
2023/04/18 09:30:50;;;;;;;16.90;11.73;;;;;;;10.37;72.53;99729.38;7335809;39;20286;31
2023/04/18 09:36:31;;;;;;;12.47;11.00;;;;;;;10.56;72.07;99729.25;7323651;39;20266;31
2023/04/18 09:42:12;;;;;;;15.20;11.47;;;;;;;10.76;71.01;99725.38;7399593;39;20288;31
2023/04/18 09:47:44;;;;;;;13.13;10.87;;;;;;;10.82;71.34;99722.06;7357611;39;20442;31
2023/04/18 09:53:20;;;;;;;12.17;9.73;;;;;;;11.08;70.59;99713.16;7355834;39;20236;31
2023/04/18 09:58:55;;;;;;;13.67;10.83;;;;;;;11.39;69.93;99706.31;7296008;39;20354;31
2023/04/18 10:04:24;;;;;;;13.67;10.47;;;;;;;11.89;69.51;99706.41;7261744;39;20241;31
2023/04/18 10:09:57;;;;;;;12.55;10.15;;;;;;;12.10;68.00;99723.06;7236071;40;20246;31
2023/04/18 10:15:29;;;;;;;18.60;11.30;;;;;;;12.08;68.19;99711.56;7271209;39;20255;31
2023/04/18 10:20:58;;;;;;;13.90;10.60;;;;;;;12.21;68.01;99724.59;7277307;40;20299;31
2023/04/18 10:26:31;;;;;;;15.15;10.35;;;;;;;11.90;68.69;99723.47;7312986;39;20265;31
2023/04/18 10:37:17;;;;;;;12.20;10.20;;;;;;;11.75;69.12;99717.84;7418056;39;21151;31
2023/04/18 10:43:12;;;;;;;12.57;10.00;;;;;;;11.82;69.12;99724.28;7488676;39;20245;31
2023/04/18 10:48:30;;;;;;;10.75;9.45;;;;;;;11.82;68.45;99720.72;7499223;39;20242;31
2023/04/18 10:54:01;;;;;;;11.13;9.73;;;;;;;11.72;68.40;99716.28;7436102;39;20488;31
2023/04/18 10:59:32;;;;;;;13.10;10.00;;;;;;;11.76;68.72;99710.59;7420235;39;20239;31
2023/04/18 11:05:04;;;;;;;11.45;8.90;;;;;;;11.91;68.53;99698.16;7376395;39;20275;31
2023/04/18 11:10:36;;;;;;;12.20;9.70;;;;;;;12.11;68.58;99697.72;7335667;39;20237;31
2023/04/18 11:16:37;;;;;;;15.83;9.70;;;;;;;12.16;68.75;99689.97;7368348;39;21760;31
2023/04/18 11:22:14;;;;;;;14.10;9.97;;;;;;;12.37;68.44;99689.53;7295552;39;20244;31
2023/04/18 11:27:46;;;;;;;12.13;9.27;;;;;;;12.58;67.53;99686.34;7296490;40;20245;31
2023/04/18 11:33:18;;;;;;;12.00;10.00;;;;;;;12.64;67.78;99688.34;7278554;40;20263;31
2023/04/18 11:38:50;;;;;;;12.93;9.83;;;;;;;12.73;67.52;99681.09;7352273;39;20262;31
2023/04/18 11:44:22;;;;;;;11.80;9.60;;;;;;;12.78;67.51;99678.72;7396486;39;20242;31
2023/04/18 11:49:58;;;;;;;12.30;9.80;;;;;;;12.79;67.75;99683.13;7371583;39;20334;31
2023/04/18 11:55:30;;;;;;;11.83;9.30;;;;;;;12.84;67.12;99678.06;7339574;39;20292;31
2023/04/18 12:06:11;;;;;;;9.80;8.50;;;;;;;12.90;66.91;99693.63;7294771;39;21114;31
2023/04/18 12:11:43;;;;;;;9.35;8.25;;;;;;;13.01;66.89;99688.72;7282127;39;20289;31
2023/04/18 12:17:17;;;;;;;10.77;9.37;;;;;;;13.10;67.34;99686.84;7343234;39;20372;31
2023/04/18 12:22:53;;;;;;;11.35;9.70;;;;;;;13.77;66.06;99661.16;7293244;39;20294;31
2023/04/18 12:28:27;;;;;;;10.80;8.70;;;;;;;14.27;65.42;99660.72;7321608;39;20255;31
2023/04/18 12:39:02;;;;;;;9.90;7.90;;;;;;;14.23;63.54;99651.25;7370209;39;21266;31
2023/04/18 12:44:19;;;;;;;9.73;7.78;;;;;;;14.22;63.94;99651.41;7388299;39;20350;31
2023/04/18 12:49:54;;;;;;;10.43;7.97;;;;;;;14.07;64.25;99640.50;7422612;39;20324;31
2023/04/18 12:55:30;;;;;;;10.13;7.73;;;;;;;13.97;64.64;99632.59;7372856;39;20259;31
2023/04/18 13:00:50;;;;;;;9.03;8.00;;;;;;;13.87;65.26;99644.66;7380969;39;20265;31
2023/04/18 13:06:10;;;;;;;8.80;7.30;;;;;;;13.71;65.08;99640.19;7399862;39;20247;31
2023/04/18 13:11:43;;;;;;;10.05;7.50;;;;;;;13.63;64.96;99647.50;7376490;39;20356;31
2023/04/18 13:22:04;;;;;;;8.50;6.90;;;;;;;13.71;65.62;99645.59;7353882;39;21065;31
2023/04/18 13:27:52;;;;;;;7.17;6.40;;;;;;;13.69;64.99;99646.81;7401948;39;20286;31
2023/04/18 13:33:27;;;;;;;8.82;7.70;;;;;;;13.75;64.31;99635.25;7385249;39;20273;31
2023/04/18 13:39:04;;;;;;;6.30;5.70;;;;;;;13.87;64.12;99633.81;7417810;39;20328;31
2023/04/18 13:44:35;;;;;;;5.37;4.83;;;;;;;14.08;63.37;99638.66;7336721;39;20352;31
2023/04/18 13:50:07;;;;;;;5.27;4.53;;;;;;;14.16;63.04;99628.59;7318224;39;20323;31
2023/04/18 13:55:39;;;;;;;5.80;4.97;;;;;;;14.21;62.49;99636.19;7323515;39;20260;31
2023/04/18 14:01:12;;;;;;;5.73;4.40;;;;;;;14.14;62.30;99627.06;7271119;40;20249;31
2023/04/18 14:06:42;;;;;;;4.33;3.93;;;;;;;14.14;61.37;99632.50;7361848;39;20255;31
2023/04/18 14:12:00;;;;;;;4.67;4.13;;;;;;;14.10;61.99;99633.88;7377393;39;20259;31
2023/04/18 14:17:30;;;;;;;3.95;3.55;;;;;;;14.11;61.70;99636.41;7367294;39;20244;31
2023/04/18 14:22:51;;;;;;;4.60;4.10;;;;;;;14.06;61.51;99633.41;7401959;39;21302;31
2023/04/18 14:28:23;;;;;;;4.17;3.77;;;;;;;14.05;61.57;99634.41;7407478;39;21174;31
2023/04/18 14:33:55;;;;;;;5.33;4.60;;;;;;;14.07;62.79;99635.09;7314574;39;20252;31
2023/04/18 14:39:13;;;;;;;4.03;3.70;;;;;;;14.08;62.72;99631.38;7354862;39;20244;31
2023/04/18 14:44:47;;;;;;;6.87;4.00;;;;;;;14.06;62.79;99641.53;7313736;39;20278;31
2023/04/18 14:50:22;;;;;;;4.97;4.00;;;;;;;14.10;61.89;99640.16;7109613;39;20302;31
2023/04/18 14:55:39;;;;;;;4.20;3.80;;;;;;;14.21;62.15;99639.75;7371212;39;20262;31
2023/04/18 15:01:10;;;;;;;4.10;3.74;;;;;;;14.31;62.40;99628.66;7373087;39;20243;31
2023/04/18 15:06:43;;;;;;;3.97;3.43;;;;;;;14.31;61.76;99632.22;7357231;39;20276;31
2023/04/18 15:12:01;;;;;;;6.63;4.30;;;;;;;14.31;62.50;99626.78;7335114;39;20255;31
2023/04/18 15:17:18;;;;;;;5.35;4.20;;;;;;;14.26;62.94;99623.75;7336326;39;20348;31
2023/04/18 15:22:53;;;;;;;4.70;3.97;;;;;;;14.20;62.43;99632.63;7348752;39;20339;31
2023/04/18 15:28:24;;;;;;;6.45;3.65;;;;;;;14.14;62.33;99635.19;7401991;39;20700;31
2023/04/18 15:33:57;;;;;;;4.76;4.26;;;;;;;14.14;62.57;99630.63;7357516;39;20421;31
2023/04/18 15:39:30;;;;;;;3.90;3.50;;;;;;;14.15;62.51;99626.91;7340931;39;20257;31
2023/04/18 15:45:02;;;;;;;4.83;3.80;;;;;;;14.23;62.30;99617.88;7400472;39;20231;31
2023/04/18 15:50:19;;;;;;;4.20;3.70;;;;;;;14.26;62.65;99626.47;7343515;39;20336;31
2023/04/18 15:55:56;;;;;;;4.13;3.73;;;;;;;14.23;61.95;99623.28;7295138;39;20258;31
2023/04/18 16:01:27;;;;;;;6.65;5.20;;;;;;;14.20;62.77;99624.50;7319438;39;20239;31
2023/04/18 16:06:47;;;;;;;27.53;14.93;;;;;;;14.19;62.67;99622.81;7360436;39;20263;31
2023/04/18 16:12:23;;;;;;;14.60;9.47;;;;;;;14.18;62.41;99628.41;7388366;39;20333;31
2023/04/18 16:17:55;;;;;;;5.63;4.33;;;;;;;14.17;63.01;99630.25;7376883;39;20482;31
2023/04/18 16:23:30;;;;;;;7.87;5.87;;;;;;;14.17;63.00;99635.69;7334706;39;20263;31
2023/04/18 16:29:03;;;;;;;7.63;5.30;;;;;;;14.22;62.92;99646.00;7312544;39;20315;31
2023/04/18 16:34:20;;;;;;;5.93;4.40;;;;;;;14.24;62.86;99631.25;7352270;39;20259;31
2023/04/18 16:39:52;;;;;;;4.87;3.90;;;;;;;14.24;62.95;99635.81;7405433;39;20239;31
2023/04/18 16:45:24;;;;;;;6.10;3.90;;;;;;;14.21;62.85;99634.34;7419104;39;21073;31
2023/04/18 16:50:44;;;;;;;5.73;4.60;;;;;;;14.23;62.88;99632.28;7358495;39;20251;31
2023/04/18 16:55:59;;;;;;;5.23;4.57;;;;;;;14.18;62.93;99636.53;7366815;39;20247;31
2023/04/18 17:01:33;;;;;;;4.20;3.80;;;;;;;14.15;63.24;99642.31;7417683;39;20239;31
2023/04/18 17:07:02;;;;;;;5.00;4.50;;;;;;;14.13;63.83;99634.34;7419647;39;20348;31
2023/04/18 17:12:35;;;;;;;7.00;4.70;;;;;;;14.14;63.45;99640.63;7354544;39;20254;31
2023/04/18 17:18:11;;;;;;;5.13;4.60;;;;;;;14.07;63.69;99634.25;7367338;39;20395;31
2023/04/18 17:23:43;;;;;;;4.80;4.30;;;;;;;14.04;63.20;99640.84;7373710;39;20327;31
2023/04/18 17:29:24;;;;;;;5.17;4.47;;;;;;;14.04;63.47;99638.13;7383358;39;20377;31
2023/04/18 17:34:55;;;;;;;4.23;3.83;;;;;;;14.04;63.23;99643.56;7373451;39;20267;31
2023/04/18 17:40:25;;;;;;;5.30;4.18;;;;;;;14.02;63.34;99639.34;7358571;39;21126;31
2023/04/18 17:45:45;;;;;;;5.25;4.25;;;;;;;13.96;63.53;99640.88;7293687;40;20365;31
2023/04/18 17:51:19;;;;;;;4.57;4.17;;;;;;;13.99;64.03;99646.84;7336074;39;20387;31
2023/04/18 17:56:35;;;;;;;4.90;4.40;;;;;;;13.93;64.21;99646.69;7337774;39;20240;31
2023/04/18 18:07:14;;;;;;;4.80;4.40;;;;;;;13.87;63.85;99653.62;7403429;39;20248;31
2023/04/18 18:12:46;;;;;;;5.90;5.27;;;;;;;13.84;64.51;99666.69;7442020;39;20261;31
2023/04/18 18:23:23;;;;;;;8.60;5.93;;;;;;;13.79;64.98;99669.94;7417857;39;21207;31
2023/04/18 18:29:07;;;;;;;5.80;5.17;;;;;;;13.76;65.61;99670.31;7425273;39;20251;31
2023/04/18 18:34:56;;;;;;;5.83;5.23;;;;;;;13.67;65.34;99667.78;7397142;39;20254;31
2023/04/18 18:40:27;;;;;;;5.87;5.27;;;;;;;13.66;65.32;99679.63;7316002;39;20245;31
2023/04/18 18:45:59;;;;;;;5.70;5.20;;;;;;;13.69;65.33;99690.16;7315210;39;20241;31
2023/04/18 18:51:19;;;;;;;5.80;4.90;;;;;;;13.68;65.14;99700.12;7317462;39;20241;31
2023/04/18 18:56:52;;;;;;;9.27;7.20;;;;;;;13.60;64.64;99708.28;7338593;39;20257;31
2023/04/18 19:02:12;;;;;;;6.43;5.80;;;;;;;13.57;64.51;99718.59;7373420;39;20240;31
2023/04/18 19:07:32;;;;;;;6.40;5.17;;;;;;;13.47;63.95;99714.22;7419722;39;20358;31
2023/04/18 19:13:11;;;;;;;6.50;4.65;;;;;;;13.39;64.02;99724.22;7406984;39;21065;31
2023/04/18 19:23:49;;;;;;;4.57;4.17;;;;;;;13.37;64.24;99728.97;7430225;39;20238;31
2023/04/18 19:29:19;;;;;;;5.37;4.70;;;;;;;13.29;64.01;99735.25;7447471;39;20432;31
2023/04/18 19:34:40;;;;;;;5.20;4.65;;;;;;;13.30;64.48;99736.94;7378355;39;20243;31
2023/04/18 19:40:15;;;;;;;6.50;5.37;;;;;;;13.21;64.39;99746.06;7359000;39;20359;31
2023/04/18 19:45:47;;;;;;;5.63;4.70;;;;;;;13.13;64.67;99753.34;7333983;39;20261;31
2023/04/18 19:51:09;;;;;;;5.53;5.00;;;;;;;13.11;64.98;99747.28;7372434;39;20402;31
2023/04/18 19:56:26;;;;;;;5.50;4.67;;;;;;;13.04;64.98;99755.16;7376632;39;21183;31
2023/04/18 20:01:56;;;;;;;6.43;4.80;;;;;;;13.01;64.75;99761.78;7381347;39;20354;31
2023/04/18 20:07:28;;;;;;;5.90;5.30;;;;;;;13.00;65.02;99762.78;7385340;39;20262;31
2023/04/18 20:12:45;;;;;;;7.77;5.30;;;;;;;12.96;65.40;99763.28;7354332;39;20333;31
2023/04/18 20:18:22;;;;;;;7.00;5.05;;;;;;;12.91;65.93;99777.31;7358564;39;20262;31
2023/04/18 20:23:40;;;;;;;7.33;5.20;;;;;;;12.88;66.23;99776.81;7335551;39;20368;31
2023/04/18 20:28:57;;;;;;;6.73;5.53;;;;;;;12.88;65.66;99783.06;7358544;39;20251;31
2023/04/18 20:34:31;;;;;;;6.75;5.80;;;;;;;12.75;66.35;99781.88;7322552;39;20315;31
2023/04/18 20:45:20;;;;;;;6.45;5.85;;;;;;;12.68;66.69;99780.84;7317362;39;21156;31
2023/04/18 20:55:58;;;;;;;6.97;6.07;;;;;;;12.66;66.77;99794.53;7388045;39;20258;31
2023/04/18 21:01:19;;;;;;;7.30;6.27;;;;;;;12.62;66.62;99782.34;7377009;39;20396;31
2023/04/18 21:06:39;;;;;;;10.45;7.80;;;;;;;12.54;66.98;99787.75;7396694;39;20266;31
2023/04/18 21:12:14;;;;;;;8.00;7.20;;;;;;;12.50;66.65;99787.22;7375171;39;20346;31
2023/04/18 21:17:46;;;;;;;8.40;7.20;;;;;;;12.52;67.04;99787.91;7402581;39;20306;31
2023/04/18 21:23:04;;;;;;;8.07;7.27;;;;;;;12.50;67.01;99799.91;7192104;39;20272;31
2023/04/18 21:28:36;;;;;;;9.50;7.32;;;;;;;12.44;67.42;99806.81;7426295;39;20287;31
2023/04/18 21:34:10;;;;;;;8.87;7.07;;;;;;;12.40;67.52;99805.44;7418319;39;20266;31
2023/04/18 21:39:42;;;;;;;7.80;7.00;;;;;;;12.40;67.03;99807.28;7355898;39;20259;31
2023/04/18 21:45:14;;;;;;;8.90;7.00;;;;;;;12.39;68.45;99813.69;7291703;40;20249;31
2023/04/18 21:55:50;;;;;;;8.40;7.50;;;;;;;12.30;68.46;99818.22;7295600;39;21050;31
2023/04/18 22:06:29;;;;;;;7.90;7.10;;;;;;;12.19;69.27;99808.56;7385301;39;20281;31
2023/04/18 22:11:50;;;;;;;8.63;7.37;;;;;;;12.20;68.48;99812.94;7424835;39;21832;31
2023/04/18 22:17:05;;;;;;;8.17;7.30;;;;;;;12.18;68.56;99806.88;7421438;39;20268;31
2023/04/18 22:22:38;;;;;;;9.00;7.80;;;;;;;12.14;68.69;99800.09;7423919;39;20265;31
2023/04/18 22:27:55;;;;;;;8.77;7.50;;;;;;;12.15;68.71;99803.66;7358291;39;20264;31
2023/04/18 22:33:26;;;;;;;9.33;7.33;;;;;;;12.07;68.70;99803.59;7355400;39;20274;31
2023/04/18 22:44:03;;;;;;;8.43;7.20;;;;;;;12.01;68.70;99804.25;7331529;39;20427;31
2023/04/18 22:54:39;;;;;;;8.27;7.03;;;;;;;12.05;69.20;99798.34;7382093;39;20646;31
2023/04/18 23:05:18;;;;;;;7.70;6.90;;;;;;;12.01;69.53;99810.50;7400103;39;20265;31
2023/04/18 23:10:53;;;;;;;8.40;7.23;;;;;;;11.94;69.76;99814.84;7429406;39;21230;31
2023/04/18 23:16:28;;;;;;;8.70;6.90;;;;;;;11.89;69.97;99806.34;7414543;39;20250;31
2023/04/18 23:27:06;;;;;;;10.02;7.60;;;;;;;11.86;70.57;99809.38;7398322;39;21183;31
2023/04/18 23:32:38;;;;;;;8.73;7.80;;;;;;;11.86;69.89;99809.38;7313206;39;20259;31
2023/04/18 23:38:10;;;;;;;8.13;7.30;;;;;;;11.85;70.62;99812.25;7336955;39;20342;31
2023/04/18 23:43:46;;;;;;;9.95;8.05;;;;;;;11.82;70.40;99807.16;7291739;39;20350;31
2023/04/18 23:49:18;;;;;;;9.90;8.70;;;;;;;11.76;70.34;99803.22;7273029;40;20276;31
2023/04/18 23:54:38;;;;;;;9.90;8.00;;;;;;;11.78;70.83;99808.50;7276688;39;20236;31
